Sea Commander — VGGC — position and weather

sailwx.info

Track history (hours):
 
Tides and Currents Weather Stations Pressure Air Temp Water Temp Dewpoint Dewpoint Depression Visibility Wind Speed Wind Dir Waves Ship Positions

Sea Commander

Last reported at 2014-Dec-20 15:11 UTC. Time now 2014-Dec-20 15:47 UTC.
Position N 51°31' W 127°34'.

Length 44 m; draft 7 m.

Type: Tug. MMSI: 316001043.

Date/timePositionNaut miles runAvg speedWind from/ knotsBaromVisibWave heightAir tempDewpointWater temp
2014-Dec-20 15:11N 51°31' W 127°34'4 4.3
2014-Dec-20 14:19N 51°35' W 127°33'1 0.3
2014-Dec-20 11:13N 51°34' W 127°33'4 5.1
2014-Dec-20 10:29N 51°38' W 127°31'4 0.8
2014-Dec-20 06:09N 51°34' W 127°33'0 0.1
2014-Dec-20 03:06N 51°35' W 127°32'1 1.5
2014-Dec-20 02:08N 51°36' W 127°32'2 1.5
2014-Dec-20 00:29N 51°34' W 127°33'3 3.5
2014-Dec-19 23:30N 51°37' W 127°32'4 1.1
2014-Dec-19 20:26N 51°33' W 127°31'2 0.4
2014-Dec-19 15:31N 51°35' W 127°32'1 0.5
2014-Dec-19 13:15N 51°34' W 127°33'3 4.5
2014-Dec-19 12:29N 51°37' W 127°31'1 0.1
2014-Dec-19 06:11N 51°37' W 127°32'30 5.2
2014-Dec-19 00:23N 51°09' W 127°51'8 9.2
2014-Dec-18 23:33N 51°04' W 127°41'9 9.3
2014-Dec-18 22:33N 50°58' W 127°30'10 9.9
2014-Dec-18 21:33N 50°52' W 127°18'9 8.7
2014-Dec-18 20:33N 50°48' W 127°06'11 8.6
2014-Dec-18 19:15N 50°41' W 126°52'6 8.1
2014-Dec-18 18:28N 50°36' W 126°45'7 7.3
2014-Dec-18 17:33N 50°31' W 126°38'10 8.9
2014-Dec-18 16:25N 50°30' W 126°22'67 7.6
2014-Dec-18 07:33N 49°50' W 124°57'10 9.5
2014-Dec-18 06:30N 49°44' W 124°45'9 8.8
2014-Dec-18 05:32N 49°39' W 124°34'9 9.6
2014-Dec-18 04:33N 49°34' W 124°22'12 8.9
2014-Dec-18 03:10N 49°28' W 124°06'6 8.8
2014-Dec-18 02:31N 49°25' W 123°58'9 9.0
2014-Dec-18 01:29N 49°20' W 123°46'8 9.0
2014-Dec-18 00:34N 49°15' W 123°36'9 8.7
2014-Dec-17 23:33N 49°09' W 123°26'7 7.2
2014-Dec-17 22:33N 49°08' W 123°15'8 8.4
2014-Dec-17 21:33N 49°09' W 123°02'6 5.4
2014-Dec-17 20:21N 49°12' W 122°54'0 0.0
2014-Dec-17 19:21N 49°12' W 122°54'0 0.0
2014-Dec-17 18:33N 49°12' W 122°54'0 0.0
2014-Dec-17 17:33N 49°12' W 122°54'0 0.0
2014-Dec-16 13:33N 49°12' W 122°54'0 0.0
2014-Dec-16 12:33N 49°12' W 122°54'0 0.5
2014-Dec-16 11:33N 49°12' W 122°54'3 3.5
2014-Dec-16 10:33N 49°09' W 122°58'7 6.5
2014-Dec-16 09:33N 49°07' W 123°07'7 7.0
2014-Dec-16 08:33N 49°06' W 123°18'5 5.2
2014-Dec-16 07:33N 49°03' W 123°24'3 3.4
2014-Dec-16 06:33N 48°60' W 123°22'3 2.5
2014-Dec-16 05:33N 48°58' W 123°24'5 5.4
2014-Dec-16 04:33N 49°01' W 123°31'5 5.0
2014-Dec-16 03:31N 49°06' W 123°31'4 4.6
2014-Dec-16 02:33N 49°09' W 123°26'9 8.9
2014-Dec-16 01:33N 49°18' W 123°27'9 8.9
2014-Dec-16 00:32N 49°27' W 123°28'2 0.8
2014-Dec-15 22:12N 49°28' W 123°29'0 0.0
2014-Dec-15 21:31N 49°28' W 123°29'0 0.0
2014-Dec-15 20:10N 49°28' W 123°29'0 0.0
2014-Dec-15 07:07N 49°28' W 123°29'0 0.1
2014-Dec-15 06:30N 49°28' W 123°29'0 0.0
2014-Dec-15 00:08N 49°28' W 123°29'0 0.0
2014-Dec-14 21:04N 49°28' W 123°29'0 0.0
2014-Dec-14 19:20N 49°28' W 123°29'0 0.0
2014-Dec-14 17:10N 49°28' W 123°29'0 0.1
2014-Dec-14 16:30N 49°28' W 123°29'0 0.1
2014-Dec-14 14:30N 49°28' W 123°29'4 4.7
2014-Dec-14 13:33N 49°24' W 123°30'0 0.0
2014-Dec-14 12:09N 49°24' W 123°30'0 0.0
2014-Dec-14 10:08N 49°24' W 123°30'0 0.0
2014-Dec-14 09:14N 49°24' W 123°30'0 0.0
2014-Dec-14 07:21N 49°24' W 123°30'0 0.0
2014-Dec-14 06:33N 49°24' W 123°30'0 0.0
2014-Dec-14 05:28N 49°24' W 123°30'0 0.0
2014-Dec-14 04:09N 49°24' W 123°30'0 0.6
2014-Dec-14 03:33N 49°24' W 123°30'4 3.5
2014-Dec-14 02:21N 49°28' W 123°29'0 0.0
2014-Dec-14 01:30N 49°28' W 123°29'0 0.0
2014-Dec-14 00:32N 49°28' W 123°29'0 0.0
2014-Dec-13 19:32N 49°28' W 123°29'0 0.0
2014-Dec-13 18:20N 49°28' W 123°29'0 0.0
2014-Dec-13 15:17N 49°28' W 123°29'0 0.1
2014-Dec-13 14:27N 49°28' W 123°29'0 0.0
2014-Dec-13 13:25N 49°28' W 123°29'0 0.5
2014-Dec-13 12:30N 49°28' W 123°28'2 1.6
2014-Dec-13 11:31N 49°27' W 123°27'5 3.8
2014-Dec-13 10:10N 49°22' W 123°26'3 4.4
2014-Dec-13 09:33N 49°19' W 123°27'5 5.1
2014-Dec-13 08:33N 49°14' W 123°27'5 5.0
2014-Dec-13 07:33N 49°09' W 123°25'5 4.9
2014-Dec-13 06:33N 49°05' W 123°21'5 4.6
2014-Dec-13 05:34N 49°02' W 123°16'5 4.7
2014-Dec-13 04:33N 48°58' W 123°11'5 4.9
2014-Dec-13 03:34N 48°55' W 123°05'5 4.7
2014-Dec-13 02:33N 48°51' W 123°02'4 4.4
2014-Dec-13 01:33N 48°47' W 123°01'6 5.5
2014-Dec-13 00:33N 48°44' W 123°08'5 5.2
2014-Dec-12 23:33N 48°41' W 123°15'5 4.6
2014-Dec-12 22:33N 48°37' W 123°13'5 4.8
2014-Dec-12 21:33N 48°32' W 123°11'5 5.4
2014-Dec-12 20:34N 48°27' W 123°10'4 3.7
2014-Dec-12 19:33N 48°24' W 123°13'3 3.4
2014-Dec-12 18:34N 48°21' W 123°16'6 6.0
2014-Dec-12 17:33N 48°18' W 123°23'8 7.7
2014-Dec-12 16:33N 48°17' W 123°35'16 7.9
2014-Dec-12 14:32N 48°21' W 123°58'8 8.0
2014-Dec-12 13:33N 48°24' W 124°09'8 8.5
2014-Dec-12 12:33N 48°27' W 124°21'9 8.9
2014-Dec-12 11:33N 48°30' W 124°33'8 8.1
2014-Dec-12 10:33N 48°33' W 124°45'7 7.2
2014-Dec-12 09:33N 48°36' W 124°54'7 6.7
2014-Dec-12 08:33N 48°39' W 125°04'6 5.8
2014-Dec-12 07:33N 48°41' W 125°12'4 4.2
2014-Dec-12 06:33N 48°45' W 125°15'3 2.8
2014-Dec-12 05:33N 48°47' W 125°16'7 6.8
2014-Dec-12 04:33N 48°51' W 125°08'7 7.0
2014-Dec-12 03:31N 48°57' W 125°01'7 7.6
2014-Dec-12 02:33N 49°01' W 124°52'3 3.5
2014-Dec-12 01:33N 49°04' W 124°51'1 1.1
2014-Dec-12 00:33N 49°05' W 124°50'4 3.6
2014-Dec-11 23:33N 49°09' W 124°48'0 0.5
2014-Dec-11 22:33N 49°09' W 124°49'0 0.0
2014-Dec-11 21:33N 49°09' W 124°49'0 0.0
2014-Dec-11 20:32N 49°09' W 124°49'0 0.0
2014-Dec-11 19:33N 49°09' W 124°49'0 0.0
2014-Dec-11 18:33N 49°09' W 124°49'0 0.0
2014-Dec-11 17:33N 49°09' W 124°49'0 0.0
2014-Dec-11 16:33N 49°09' W 124°49'0 0.0
2014-Dec-11 15:32N 49°09' W 124°49'0 0.0
2014-Dec-11 14:33N 49°09' W 124°49'0 0.0
2014-Dec-11 13:33N 49°09' W 124°49'0 0.0
2014-Dec-11 12:33N 49°09' W 124°49'0 0.0
2014-Dec-11 11:33N 49°09' W 124°49'0 0.0
2014-Dec-11 10:32N 49°09' W 124°49'0 0.0
2014-Dec-11 09:33N 49°09' W 124°49'0 0.0
2014-Dec-11 08:32N 49°09' W 124°49'0 0.0
2014-Dec-11 07:33N 49°09' W 124°49'0 0.0
2014-Dec-11 06:33N 49°09' W 124°49'0 0.0
2014-Dec-11 05:33N 49°09' W 124°49'0 0.0
2014-Dec-11 04:33N 49°09' W 124°49'0 0.0
2014-Dec-11 03:33N 49°09' W 124°49'0 0.0
2014-Dec-11 02:33N 49°09' W 124°49'0 0.0
2014-Dec-11 01:33N 49°09' W 124°49'0 0.0
2014-Dec-11 00:33N 49°09' W 124°49'0 0.0
2014-Dec-10 23:33N 49°09' W 124°49'0 0.0
2014-Dec-10 22:33N 49°09' W 124°49'0 0.0
2014-Dec-10 21:33N 49°09' W 124°49'0 0.4
2014-Dec-10 20:33N 49°09' W 124°48'0 0.3
2014-Dec-10 19:33N 49°10' W 124°48'2 1.9
2014-Dec-10 18:33N 49°08' W 124°48'2 1.6
2014-Dec-10 17:33N 49°09' W 124°48'0 0.3
2014-Dec-10 16:33N 49°10' W 124°48'4 3.7
2014-Dec-10 15:33N 49°06' W 124°50'  
Track history (hours):
 
Tides and Currents Weather Stations Pressure Air Temp Water Temp Dewpoint Dewpoint Depression Visibility Wind Speed Wind Dir Waves Ship Positions

Sea Commander

Last reported at 2014-Dec-20 15:11 UTC. Time now 2014-Dec-20 15:47 UTC.
Position N 51°31' W 127°34'.

Length 44 m; draft 7 m.

Type: Tug. MMSI: 316001043.

Date/timePositionNaut miles runAvg speedWind from/ knotsBaromVisibWave heightAir tempDewpointWater temp
2014-Dec-20 15:11N 51°31' W 127°34'4 4.3
2014-Dec-20 14:19N 51°35' W 127°33'1 0.3
2014-Dec-20 11:13N 51°34' W 127°33'4 5.1
2014-Dec-20 10:29N 51°38' W 127°31'4 0.8
2014-Dec-20 06:09N 51°34' W 127°33'0 0.1
2014-Dec-20 03:06N 51°35' W 127°32'1 1.5
2014-Dec-20 02:08N 51°36' W 127°32'2 1.5
2014-Dec-20 00:29N 51°34' W 127°33'3 3.5
2014-Dec-19 23:30N 51°37' W 127°32'4 1.1
2014-Dec-19 20:26N 51°33' W 127°31'2 0.4
2014-Dec-19 15:31N 51°35' W 127°32'1 0.5
2014-Dec-19 13:15N 51°34' W 127°33'3 4.5
2014-Dec-19 12:29N 51°37' W 127°31'1 0.1
2014-Dec-19 06:11N 51°37' W 127°32'30 5.2
2014-Dec-19 00:23N 51°09' W 127°51'8 9.2
2014-Dec-18 23:33N 51°04' W 127°41'9 9.3
2014-Dec-18 22:33N 50°58' W 127°30'10 9.9
2014-Dec-18 21:33N 50°52' W 127°18'9 8.7
2014-Dec-18 20:33N 50°48' W 127°06'11 8.6
2014-Dec-18 19:15N 50°41' W 126°52'6 8.1
2014-Dec-18 18:28N 50°36' W 126°45'7 7.3
2014-Dec-18 17:33N 50°31' W 126°38'10 8.9
2014-Dec-18 16:25N 50°30' W 126°22'67 7.6
2014-Dec-18 07:33N 49°50' W 124°57'10 9.5
2014-Dec-18 06:30N 49°44' W 124°45'9 8.8
2014-Dec-18 05:32N 49°39' W 124°34'9 9.6
2014-Dec-18 04:33N 49°34' W 124°22'12 8.9
2014-Dec-18 03:10N 49°28' W 124°06'6 8.8
2014-Dec-18 02:31N 49°25' W 123°58'9 9.0
2014-Dec-18 01:29N 49°20' W 123°46'8 9.0
2014-Dec-18 00:34N 49°15' W 123°36'9 8.7
2014-Dec-17 23:33N 49°09' W 123°26'7 7.2
2014-Dec-17 22:33N 49°08' W 123°15'8 8.4
2014-Dec-17 21:33N 49°09' W 123°02'6 5.4
2014-Dec-17 20:21N 49°12' W 122°54'0 0.0
2014-Dec-17 19:21N 49°12' W 122°54'0 0.0
2014-Dec-17 18:33N 49°12' W 122°54'0 0.0
2014-Dec-17 17:33N 49°12' W 122°54'0 0.0
2014-Dec-16 13:33N 49°12' W 122°54'0 0.0
2014-Dec-16 12:33N 49°12' W 122°54'0 0.5
2014-Dec-16 11:33N 49°12' W 122°54'3 3.5
2014-Dec-16 10:33N 49°09' W 122°58'7 6.5
2014-Dec-16 09:33N 49°07' W 123°07'7 7.0
2014-Dec-16 08:33N 49°06' W 123°18'5 5.2
2014-Dec-16 07:33N 49°03' W 123°24'3 3.4
2014-Dec-16 06:33N 48°60' W 123°22'3 2.5
2014-Dec-16 05:33N 48°58' W 123°24'5 5.4
2014-Dec-16 04:33N 49°01' W 123°31'5 5.0
2014-Dec-16 03:31N 49°06' W 123°31'4 4.6
2014-Dec-16 02:33N 49°09' W 123°26'9 8.9
2014-Dec-16 01:33N 49°18' W 123°27'9 8.9
2014-Dec-16 00:32N 49°27' W 123°28'2 0.8
2014-Dec-15 22:12N 49°28' W 123°29'0 0.0
2014-Dec-15 21:31N 49°28' W 123°29'0 0.0
2014-Dec-15 20:10N 49°28' W 123°29'0 0.0
2014-Dec-15 07:07N 49°28' W 123°29'0 0.1
2014-Dec-15 06:30N 49°28' W 123°29'0 0.0
2014-Dec-15 00:08N 49°28' W 123°29'0 0.0
2014-Dec-14 21:04N 49°28' W 123°29'0 0.0
2014-Dec-14 19:20N 49°28' W 123°29'0 0.0
2014-Dec-14 17:10N 49°28' W 123°29'0 0.1
2014-Dec-14 16:30N 49°28' W 123°29'0 0.1
2014-Dec-14 14:30N 49°28' W 123°29'4 4.7
2014-Dec-14 13:33N 49°24' W 123°30'0 0.0
2014-Dec-14 12:09N 49°24' W 123°30'0 0.0
2014-Dec-14 10:08N 49°24' W 123°30'0 0.0
2014-Dec-14 09:14N 49°24' W 123°30'0 0.0
2014-Dec-14 07:21N 49°24' W 123°30'0 0.0
2014-Dec-14 06:33N 49°24' W 123°30'0 0.0
2014-Dec-14 05:28N 49°24' W 123°30'0 0.0
2014-Dec-14 04:09N 49°24' W 123°30'0 0.6
2014-Dec-14 03:33N 49°24' W 123°30'4 3.5
2014-Dec-14 02:21N 49°28' W 123°29'0 0.0
2014-Dec-14 01:30N 49°28' W 123°29'0 0.0
2014-Dec-14 00:32N 49°28' W 123°29'0 0.0
2014-Dec-13 19:32N 49°28' W 123°29'0 0.0
2014-Dec-13 18:20N 49°28' W 123°29'0 0.0
2014-Dec-13 15:17N 49°28' W 123°29'0 0.1
2014-Dec-13 14:27N 49°28' W 123°29'0 0.0
2014-Dec-13 13:25N 49°28' W 123°29'0 0.5
2014-Dec-13 12:30N 49°28' W 123°28'2 1.6
2014-Dec-13 11:31N 49°27' W 123°27'5 3.8
2014-Dec-13 10:10N 49°22' W 123°26'3 4.4
2014-Dec-13 09:33N 49°19' W 123°27'5 5.1
2014-Dec-13 08:33N 49°14' W 123°27'5 5.0
2014-Dec-13 07:33N 49°09' W 123°25'5 4.9
2014-Dec-13 06:33N 49°05' W 123°21'5 4.6
2014-Dec-13 05:34N 49°02' W 123°16'5 4.7
2014-Dec-13 04:33N 48°58' W 123°11'5 4.9
2014-Dec-13 03:34N 48°55' W 123°05'5 4.7
2014-Dec-13 02:33N 48°51' W 123°02'4 4.4
2014-Dec-13 01:33N 48°47' W 123°01'6 5.5
2014-Dec-13 00:33N 48°44' W 123°08'5 5.2
2014-Dec-12 23:33N 48°41' W 123°15'5 4.6
2014-Dec-12 22:33N 48°37' W 123°13'5 4.8
2014-Dec-12 21:33N 48°32' W 123°11'5 5.4
2014-Dec-12 20:34N 48°27' W 123°10'4 3.7
2014-Dec-12 19:33N 48°24' W 123°13'3 3.4
2014-Dec-12 18:34N 48°21' W 123°16'6 6.0
2014-Dec-12 17:33N 48°18' W 123°23'8 7.7
2014-Dec-12 16:33N 48°17' W 123°35'16 7.9
2014-Dec-12 14:32N 48°21' W 123°58'8 8.0
2014-Dec-12 13:33N 48°24' W 124°09'8 8.5
2014-Dec-12 12:33N 48°27' W 124°21'9 8.9
2014-Dec-12 11:33N 48°30' W 124°33'8 8.1
2014-Dec-12 10:33N 48°33' W 124°45'7 7.2
2014-Dec-12 09:33N 48°36' W 124°54'7 6.7
2014-Dec-12 08:33N 48°39' W 125°04'6 5.8
2014-Dec-12 07:33N 48°41' W 125°12'4 4.2
2014-Dec-12 06:33N 48°45' W 125°15'3 2.8
2014-Dec-12 05:33N 48°47' W 125°16'7 6.8
2014-Dec-12 04:33N 48°51' W 125°08'7 7.0
2014-Dec-12 03:31N 48°57' W 125°01'7 7.6
2014-Dec-12 02:33N 49°01' W 124°52'3 3.5
2014-Dec-12 01:33N 49°04' W 124°51'1 1.1
2014-Dec-12 00:33N 49°05' W 124°50'4 3.6
2014-Dec-11 23:33N 49°09' W 124°48'0 0.5
2014-Dec-11 22:33N 49°09' W 124°49'0 0.0
2014-Dec-11 21:33N 49°09' W 124°49'0 0.0
2014-Dec-11 20:32N 49°09' W 124°49'0 0.0
2014-Dec-11 19:33N 49°09' W 124°49'0 0.0
2014-Dec-11 18:33N 49°09' W 124°49'0 0.0
2014-Dec-11 17:33N 49°09' W 124°49'0 0.0
2014-Dec-11 16:33N 49°09' W 124°49'0 0.0
2014-Dec-11 15:32N 49°09' W 124°49'0 0.0
2014-Dec-11 14:33N 49°09' W 124°49'0 0.0
2014-Dec-11 13:33N 49°09' W 124°49'0 0.0
2014-Dec-11 12:33N 49°09' W 124°49'0 0.0
2014-Dec-11 11:33N 49°09' W 124°49'0 0.0
2014-Dec-11 10:32N 49°09' W 124°49'0 0.0
2014-Dec-11 09:33N 49°09' W 124°49'0 0.0
2014-Dec-11 08:32N 49°09' W 124°49'0 0.0
2014-Dec-11 07:33N 49°09' W 124°49'0 0.0
2014-Dec-11 06:33N 49°09' W 124°49'0 0.0
2014-Dec-11 05:33N 49°09' W 124°49'0 0.0
2014-Dec-11 04:33N 49°09' W 124°49'0 0.0
2014-Dec-11 03:33N 49°09' W 124°49'0 0.0
2014-Dec-11 02:33N 49°09' W 124°49'0 0.0
2014-Dec-11 01:33N 49°09' W 124°49'0 0.0
2014-Dec-11 00:33N 49°09' W 124°49'0 0.0
2014-Dec-10 23:33N 49°09' W 124°49'0 0.0
2014-Dec-10 22:33N 49°09' W 124°49'0 0.0
2014-Dec-10 21:33N 49°09' W 124°49'0 0.4
2014-Dec-10 20:33N 49°09' W 124°48'0 0.3
2014-Dec-10 19:33N 49°10' W 124°48'2 1.9
2014-Dec-10 18:33N 49°08' W 124°48'2 1.6
2014-Dec-10 17:33N 49°09' W 124°48'0 0.3
2014-Dec-10 16:33N 49°10' W 124°48'4 3.7
2014-Dec-10 15:33N 49°06' W 124°50'  

Dump ship's entire track history